sensor_id;sensor_type;location;lat;lon;timestamp;P1;P2;P0
62778;PMS7003;48821;48.796;2.396;2023-05-21T00:00:13;16.00;15.00;12.60
62778;PMS7003;48821;48.796;2.396;2023-05-21T00:01:25;17.20;15.20;12.20
62778;PMS7003;48821;48.796;2.396;2023-05-21T00:02:37;15.60;14.20;11.80
62778;PMS7003;48821;48.796;2.396;2023-05-21T00:03:49;13.80;13.00;10.60
62778;PMS7003;48821;48.796;2.396;2023-05-21T00:05:01;20.80;18.00;12.20
62778;PMS7003;48821;48.796;2.396;2023-05-21T00:06:13;19.20;15.40;12.40
62778;PMS7003;48821;48.796;2.396;2023-05-21T00:07:27;14.29;13.29;11.57
62778;PMS7003;48821;48.796;2.396;2023-05-21T00:08:39;13.33;13.33;10.67
62778;PMS7003;48821;48.796;2.396;2023-05-21T00:09:51;16.20;14.20;12.00
62778;PMS7003;48821;48.796;2.396;2023-05-21T00:11:02;18.67;16.00;12.00
62778;PMS7003;48821;48.796;2.396;2023-05-21T00:12:15;19.00;18.29;14.29
62778;PMS7003;48821;48.796;2.396;2023-05-21T00:13:27;19.60;15.00;12.00
62778;PMS7003;48821;48.796;2.396;2023-05-21T00:14:39;13.00;11.80;8.20
62778;PMS7003;48821;48.796;2.396;2023-05-21T00:15:52;14.57;14.57;11.86
62778;PMS7003;48821;48.796;2.396;2023-05-21T00:17:02;16.00;14.00;11.00
62778;PMS7003;48821;48.796;2.396;2023-05-21T00:18:14;17.60;15.00;12.20
62778;PMS7003;48821;48.796;2.396;2023-05-21T00:19:26;15.33;15.33;12.00
62778;PMS7003;48821;48.796;2.396;2023-05-21T00:20:39;21.29;18.57;14.00
62778;PMS7003;48821;48.796;2.396;2023-05-21T00:21:50;17.50;14.00;11.00
62778;PMS7003;48821;48.796;2.396;2023-05-21T00:23:02;21.60;16.80;13.60
62778;PMS7003;48821;48.796;2.396;2023-05-21T00:24:14;19.60;17.00;12.80
62778;PMS7003;48821;48.796;2.396;2023-05-21T00:25:26;16.20;16.20;13.80
62778;PMS7003;48821;48.796;2.396;2023-05-21T00:26:39;19.00;15.86;12.29
62778;PMS7003;48821;48.796;2.396;2023-05-21T00:27:51;19.80;18.00;13.40
62778;PMS7003;48821;48.796;2.396;2023-05-21T00:29:02;13.60;12.80;10.80
62778;PMS7003;48821;48.796;2.396;2023-05-21T00:30:14;19.80;17.80;12.40
62778;PMS7003;48821;48.796;2.396;2023-05-21T00:31:26;20.00;16.67;13.33
62778;PMS7003;48821;48.796;2.396;2023-05-21T00:32:38;20.80;17.20;13.80
62778;PMS7003;48821;48.796;2.396;2023-05-21T00:33:50;15.80;15.20;12.60
62778;PMS7003;48821;48.796;2.396;2023-05-21T00:35:03;18.43;14.57;10.43
62778;PMS7003;48821;48.796;2.396;2023-05-21T00:36:15;15.33;15.00;12.00
62778;PMS7003;48821;48.796;2.396;2023-05-21T00:37:27;20.00;18.60;13.60
62778;PMS7003;48821;48.796;2.396;2023-05-21T00:38:42;15.00;15.00;11.00
62778;PMS7003;48821;48.796;2.396;2023-05-21T00:39:52;14.50;13.00;11.00
62778;PMS7003;48821;48.796;2.396;2023-05-21T00:41:04;22.00;19.20;13.60
62778;PMS7003;48821;48.796;2.396;2023-05-21T00:42:15;21.40;18.40;12.60
62778;PMS7003;48821;48.796;2.396;2023-05-21T00:43:28;17.00;13.00;10.00
62778;PMS7003;48821;48.796;2.396;2023-05-21T00:44:40;23.80;20.00;16.80
62778;PMS7003;48821;48.796;2.396;2023-05-21T00:45:51;19.80;17.80;11.80
62778;PMS7003;48821;48.796;2.396;2023-05-21T00:47:03;20.40;18.40;14.40
62778;PMS7003;48821;48.796;2.396;2023-05-21T00:48:16;17.33;17.33;13.00
62778;PMS7003;48821;48.796;2.396;2023-05-21T00:49:28;21.60;19.40;14.00
62778;PMS7003;48821;48.796;2.396;2023-05-21T00:50:40;15.00;14.00;11.50
62778;PMS7003;48821;48.796;2.396;2023-05-21T00:51:51;16.33;14.33;11.00
62778;PMS7003;48821;48.796;2.396;2023-05-21T00:53:03;18.00;18.00;13.00
62778;PMS7003;48821;48.796;2.396;2023-05-21T00:54:15;23.20;18.80;14.40
62778;PMS7003;48821;48.796;2.396;2023-05-21T00:55:27;20.40;20.40;15.20
62778;PMS7003;48821;48.796;2.396;2023-05-21T00:56:40;17.14;17.14;13.86
62778;PMS7003;48821;48.796;2.396;2023-05-21T00:57:52;21.60;19.80;15.60
62778;PMS7003;48821;48.796;2.396;2023-05-21T00:59:04;17.40;14.00;11.60
62778;PMS7003;48821;48.796;2.396;2023-05-21T01:00:15;20.80;20.00;14.40
62778;PMS7003;48821;48.796;2.396;2023-05-21T01:01:27;22.60;21.20;15.60
62778;PMS7003;48821;48.796;2.396;2023-05-21T01:02:43;21.33;19.67;14.67
62778;PMS7003;48821;48.796;2.396;2023-05-21T01:03:54;19.00;17.50;11.50
62778;PMS7003;48821;48.796;2.396;2023-05-21T01:05:07;20.00;17.67;13.67
62778;PMS7003;48821;48.796;2.396;2023-05-21T01:06:17;21.00;16.50;14.00
62778;PMS7003;48821;48.796;2.396;2023-05-21T01:07:31;22.67;19.33;14.67
62778;PMS7003;48821;48.796;2.396;2023-05-21T01:08:43;24.50;22.50;17.50
62778;PMS7003;48821;48.796;2.396;2023-05-21T01:09:55;22.40;17.40;13.20
62778;PMS7003;48821;48.796;2.396;2023-05-21T01:11:07;21.80;20.60;13.20
62778;PMS7003;48821;48.796;2.396;2023-05-21T01:12:17;20.50;17.00;12.50
62778;PMS7003;48821;48.796;2.396;2023-05-21T01:13:29;18.00;17.67;12.00
62778;PMS7003;48821;48.796;2.396;2023-05-21T01:14:41;21.40;19.20;14.00
62778;PMS7003;48821;48.796;2.396;2023-05-21T01:15:53;24.20;21.60;16.80
62778;PMS7003;48821;48.796;2.396;2023-05-21T01:17:05;17.67;16.00;11.67
62778;PMS7003;48821;48.796;2.396;2023-05-21T01:18:20;24.33;20.00;15.00
62778;PMS7003;48821;48.796;2.396;2023-05-21T01:19:32;22.60;19.20;14.20
62778;PMS7003;48821;48.796;2.396;2023-05-21T01:20:45;21.67;20.00;15.00
62778;PMS7003;48821;48.796;2.396;2023-05-21T01:21:59;23.67;19.67;14.00
62778;PMS7003;48821;48.796;2.396;2023-05-21T01:23:10;20.00;20.00;14.50
62778;PMS7003;48821;48.796;2.396;2023-05-21T01:24:21;21.40;20.20;13.80
62778;PMS7003;48821;48.796;2.396;2023-05-21T01:25:31;22.50;21.00;14.00
62778;PMS7003;48821;48.796;2.396;2023-05-21T01:26:43;20.20;20.20;14.20
62778;PMS7003;48821;48.796;2.396;2023-05-21T01:27:56;19.67;14.67;13.67
62778;PMS7003;48821;48.796;2.396;2023-05-21T01:29:07;22.80;20.80;14.60
62778;PMS7003;48821;48.796;2.396;2023-05-21T01:30:23;22.67;20.67;15.67
62778;PMS7003;48821;48.796;2.396;2023-05-21T01:34:20;20.40;19.40;15.40
62778;PMS7003;48821;48.796;2.396;2023-05-21T01:35:34;24.67;21.00;14.67
62778;PMS7003;48821;48.796;2.396;2023-05-21T01:36:47;21.00;20.00;15.50
62778;PMS7003;48821;48.796;2.396;2023-05-21T01:38:02;18.00;18.00;14.00
62778;PMS7003;48821;48.796;2.396;2023-05-21T01:39:16;23.67;20.00;15.67
62778;PMS7003;48821;48.796;2.396;2023-05-21T01:40:40;23.33;20.33;13.67
62778;PMS7003;48821;48.796;2.396;2023-05-21T01:41:55;20.00;17.67;13.00
62778;PMS7003;48821;48.796;2.396;2023-05-21T01:43:07;22.00;20.00;13.00
62778;PMS7003;48821;48.796;2.396;2023-05-21T01:44:19;24.00;22.33;15.67
62778;PMS7003;48821;48.796;2.396;2023-05-21T01:45:32;19.67;19.67;13.67
62778;PMS7003;48821;48.796;2.396;2023-05-21T01:46:43;18.50;18.00;13.50
62778;PMS7003;48821;48.796;2.396;2023-05-21T01:47:55;23.20;21.20;17.40
62778;PMS7003;48821;48.796;2.396;2023-05-21T01:49:07;22.00;20.00;14.67
62778;PMS7003;48821;48.796;2.396;2023-05-21T01:50:19;23.80;21.80;16.20
62778;PMS7003;48821;48.796;2.396;2023-05-21T01:51:32;21.33;18.67;14.00
62778;PMS7003;48821;48.796;2.396;2023-05-21T01:52:47;22.00;20.33;15.67
62778;PMS7003;48821;48.796;2.396;2023-05-21T01:53:58;19.50;19.00;14.00
62778;PMS7003;48821;48.796;2.396;2023-05-21T01:55:10;20.80;20.60;14.40
62778;PMS7003;48821;48.796;2.396;2023-05-21T01:56:22;25.20;20.20;14.60
62778;PMS7003;48821;48.796;2.396;2023-05-21T01:57:35;24.00;22.00;16.00
62778;PMS7003;48821;48.796;2.396;2023-05-21T01:58:47;27.00;21.80;16.60
62778;PMS7003;48821;48.796;2.396;2023-05-21T02:00:00;26.67;23.33;17.00
62778;PMS7003;48821;48.796;2.396;2023-05-21T02:01:12;24.00;23.00;16.33
62778;PMS7003;48821;48.796;2.396;2023-05-21T02:02:24;28.60;19.40;15.20
62778;PMS7003;48821;48.796;2.396;2023-05-21T02:03:34;26.20;22.60;19.00
62778;PMS7003;48821;48.796;2.396;2023-05-21T02:04:46;27.40;24.60;18.00
62778;PMS7003;48821;48.796;2.396;2023-05-21T02:05:58;25.60;20.20;15.20
62778;PMS7003;48821;48.796;2.396;2023-05-21T02:07:10;28.20;23.80;17.80
62778;PMS7003;48821;48.796;2.396;2023-05-21T02:08:22;25.80;20.20;15.00
62778;PMS7003;48821;48.796;2.396;2023-05-21T02:09:33;25.80;22.80;14.80
62778;PMS7003;48821;48.796;2.396;2023-05-21T02:10:44;23.60;21.20;16.60
62778;PMS7003;48821;48.796;2.396;2023-05-21T02:11:56;28.20;25.60;19.80
62778;PMS7003;48821;48.796;2.396;2023-05-21T02:13:10;29.38;25.13;18.38
62778;PMS7003;48821;48.796;2.396;2023-05-21T02:14:21;26.50;25.00;18.00
62778;PMS7003;48821;48.796;2.396;2023-05-21T02:15:31;25.40;22.60;17.60
62778;PMS7003;48821;48.796;2.396;2023-05-21T02:16:44;26.00;25.00;18.33
62778;PMS7003;48821;48.796;2.396;2023-05-21T02:17:56;25.20;22.60;17.60
62778;PMS7003;48821;48.796;2.396;2023-05-21T02:19:08;23.00;22.67;18.33
62778;PMS7003;48821;48.796;2.396;2023-05-21T02:20:19;24.50;21.50;15.00
62778;PMS7003;48821;48.796;2.396;2023-05-21T02:21:32;33.33;24.00;17.00
62778;PMS7003;48821;48.796;2.396;2023-05-21T02:22:45;25.00;22.80;18.00
62778;PMS7003;48821;48.796;2.396;2023-05-21T02:23:56;27.67;25.67;17.67
62778;PMS7003;48821;48.796;2.396;2023-05-21T02:25:09;26.20;25.40;18.00
62778;PMS7003;48821;48.796;2.396;2023-05-21T02:26:19;26.50;23.00;16.00
62778;PMS7003;48821;48.796;2.396;2023-05-21T02:27:31;23.50;23.50;19.00
62778;PMS7003;48821;48.796;2.396;2023-05-21T02:28:42;27.40;25.20;17.60
62778;PMS7003;48821;48.796;2.396;2023-05-21T02:29:54;23.00;23.00;17.67
62778;PMS7003;48821;48.796;2.396;2023-05-21T02:31:05;22.40;20.00;13.00
62778;PMS7003;48821;48.796;2.396;2023-05-21T02:32:16;22.20;22.20;15.80
62778;PMS7003;48821;48.796;2.396;2023-05-21T02:33:28;26.00;23.80;18.20
62778;PMS7003;48821;48.796;2.396;2023-05-21T02:34:42;27.88;25.38;18.63
62778;PMS7003;48821;48.796;2.396;2023-05-21T02:35:54;27.50;26.50;20.00
62778;PMS7003;48821;48.796;2.396;2023-05-21T02:37:05;23.60;20.20;17.60
62778;PMS7003;48821;48.796;2.396;2023-05-21T02:38:17;23.00;21.00;15.67
62778;PMS7003;48821;48.796;2.396;2023-05-21T02:39:28;21.00;17.00;14.00
62778;PMS7003;48821;48.796;2.396;2023-05-21T02:40:39;23.60;23.00;19.20
62778;PMS7003;48821;48.796;2.396;2023-05-21T02:41:51;23.00;20.00;14.67
62778;PMS7003;48821;48.796;2.396;2023-05-21T02:43:01;24.60;22.80;18.00
62778;PMS7003;48821;48.796;2.396;2023-05-21T02:44:13;22.20;18.60;15.00
62778;PMS7003;48821;48.796;2.396;2023-05-21T02:45:25;27.60;24.60;18.20
62778;PMS7003;48821;48.796;2.396;2023-05-21T02:46:38;29.14;24.14;18.43
62778;PMS7003;48821;48.796;2.396;2023-05-21T02:47:50;25.00;23.20;18.20
62778;PMS7003;48821;48.796;2.396;2023-05-21T02:49:01;24.20;23.00;15.80
62778;PMS7003;48821;48.796;2.396;2023-05-21T02:50:12;28.00;28.00;19.00
62778;PMS7003;48821;48.796;2.396;2023-05-21T02:51:23;24.00;23.33;18.00
62778;PMS7003;48821;48.796;2.396;2023-05-21T02:52:34;34.80;31.20;21.20
62778;PMS7003;48821;48.796;2.396;2023-05-21T02:53:45;27.67;25.00;19.33
62778;PMS7003;48821;48.796;2.396;2023-05-21T02:54:57;24.00;22.40;17.20
62778;PMS7003;48821;48.796;2.396;2023-05-21T02:56:11;23.75;23.75;18.88
62778;PMS7003;48821;48.796;2.396;2023-05-21T02:57:22;25.33;21.00;17.67
62778;PMS7003;48821;48.796;2.396;2023-05-21T02:58:36;28.38;26.75;18.50
62778;PMS7003;48821;48.796;2.396;2023-05-21T02:59:46;28.00;26.00;20.00
62778;PMS7003;48821;48.796;2.396;2023-05-21T03:00:58;24.80;22.60;16.60
62778;PMS7003;48821;48.796;2.396;2023-05-21T03:02:10;27.20;23.80;18.40
62778;PMS7003;48821;48.796;2.396;2023-05-21T03:03:22;27.00;23.80;17.40
62778;PMS7003;48821;48.796;2.396;2023-05-21T03:04:33;20.00;20.00;14.80
62778;PMS7003;48821;48.796;2.396;2023-05-21T03:05:47;24.50;23.00;18.00
62778;PMS7003;48821;48.796;2.396;2023-05-21T03:06:58;25.20;22.20;17.80
62778;PMS7003;48821;48.796;2.396;2023-05-21T03:08:12;23.67;22.67;17.00
62778;PMS7003;48821;48.796;2.396;2023-05-21T03:09:23;27.80;23.60;18.00
62778;PMS7003;48821;48.796;2.396;2023-05-21T03:10:33;26.50;25.00;18.00
62778;PMS7003;48821;48.796;2.396;2023-05-21T03:11:44;25.20;23.00;17.80
62778;PMS7003;48821;48.796;2.396;2023-05-21T03:12:55;31.40;25.00;19.40
62778;PMS7003;48821;48.796;2.396;2023-05-21T03:14:08;26.00;24.14;18.00
62778;PMS7003;48821;48.796;2.396;2023-05-21T03:15:20;27.80;22.20;16.60
62778;PMS7003;48821;48.796;2.396;2023-05-21T03:16:32;25.00;22.00;17.50
62778;PMS7003;48821;48.796;2.396;2023-05-21T03:17:44;27.20;25.20;17.40
62778;PMS7003;48821;48.796;2.396;2023-05-21T03:18:56;27.60;23.60;17.20
62778;PMS7003;48821;48.796;2.396;2023-05-21T03:20:09;27.00;24.00;16.60
62778;PMS7003;48821;48.796;2.396;2023-05-21T03:21:26;25.67;24.33;18.67
62778;PMS7003;48821;48.796;2.396;2023-05-21T03:22:39;23.50;21.00;14.00
62778;PMS7003;48821;48.796;2.396;2023-05-21T03:23:51;30.80;27.60;18.80
62778;PMS7003;48821;48.796;2.396;2023-05-21T03:25:03;26.33;24.67;18.33
62778;PMS7003;48821;48.796;2.396;2023-05-21T03:26:16;29.00;27.00;18.75
62778;PMS7003;48821;48.796;2.396;2023-05-21T03:27:27;25.67;23.67;18.33
62778;PMS7003;48821;48.796;2.396;2023-05-21T03:28:39;25.00;24.60;18.00
62778;PMS7003;48821;48.796;2.396;2023-05-21T03:29:51;28.00;24.40;18.80
62778;PMS7003;48821;48.796;2.396;2023-05-21T03:31:04;27.50;25.00;19.00
62778;PMS7003;48821;48.796;2.396;2023-05-21T03:32:16;28.33;26.00;17.67
62778;PMS7003;48821;48.796;2.396;2023-05-21T03:33:30;24.63;23.63;16.75
62778;PMS7003;48821;48.796;2.396;2023-05-21T03:34:41;30.67;26.33;19.33
62778;PMS7003;48821;48.796;2.396;2023-05-21T03:35:54;27.71;27.29;19.71
62778;PMS7003;48821;48.796;2.396;2023-05-21T03:37:05;29.20;27.20;19.40
62778;PMS7003;48821;48.796;2.396;2023-05-21T03:38:17;27.00;25.40;17.80
62778;PMS7003;48821;48.796;2.396;2023-05-21T03:39:31;28.50;27.75;19.88
62778;PMS7003;48821;48.796;2.396;2023-05-21T03:40:41;33.50;26.50;19.50
62778;PMS7003;48821;48.796;2.396;2023-05-21T03:41:53;30.00;26.60;19.80
62778;PMS7003;48821;48.796;2.396;2023-05-21T03:43:06;27.43;25.86;18.71
62778;PMS7003;48821;48.796;2.396;2023-05-21T03:44:20;34.88;29.38;20.50
62778;PMS7003;48821;48.796;2.396;2023-05-21T03:45:31;30.00;28.33;20.00
62778;PMS7003;48821;48.796;2.396;2023-05-21T03:46:42;26.00;23.40;18.20
62778;PMS7003;48821;48.796;2.396;2023-05-21T03:47:55;32.33;27.00;19.33
62778;PMS7003;48821;48.796;2.396;2023-05-21T03:49:07;29.40;28.20;19.20
62778;PMS7003;48821;48.796;2.396;2023-05-21T03:50:20;26.14;23.86;17.29
62778;PMS7003;48821;48.796;2.396;2023-05-21T03:51:32;27.80;25.80;18.80
62778;PMS7003;48821;48.796;2.396;2023-05-21T03:52:45;31.50;28.00;19.38
62778;PMS7003;48821;48.796;2.396;2023-05-21T03:53:59;33.00;26.33;21.00
62778;PMS7003;48821;48.796;2.396;2023-05-21T03:55:11;28.00;26.00;17.33
62778;PMS7003;48821;48.796;2.396;2023-05-21T03:56:23;25.60;25.00;17.40
62778;PMS7003;48821;48.796;2.396;2023-05-21T03:57:35;29.33;28.67;20.00
62778;PMS7003;48821;48.796;2.396;2023-05-21T03:58:47;24.33;23.00;17.67
62778;PMS7003;48821;48.796;2.396;2023-05-21T03:59:59;24.40;21.20;13.80
62778;PMS7003;48821;48.796;2.396;2023-05-21T04:01:11;39.00;31.80;21.60
62778;PMS7003;48821;48.796;2.396;2023-05-21T04:02:26;34.60;31.60;21.00
62778;PMS7003;48821;48.796;2.396;2023-05-21T04:03:37;33.67;31.33;21.33
62778;PMS7003;48821;48.796;2.396;2023-05-21T04:04:47;32.50;28.50;21.00
62778;PMS7003;48821;48.796;2.396;2023-05-21T04:06:01;31.33;29.00;20.00
62778;PMS7003;48821;48.796;2.396;2023-05-21T04:07:12;40.00;34.00;22.00
62778;PMS7003;48821;48.796;2.396;2023-05-21T04:08:25;33.00;30.00;20.00
62778;PMS7003;48821;48.796;2.396;2023-05-21T04:09:37;35.60;31.40;22.00
62778;PMS7003;48821;48.796;2.396;2023-05-21T04:10:49;38.00;33.00;21.80
62778;PMS7003;48821;48.796;2.396;2023-05-21T04:12:01;35.20;31.00;21.40
62778;PMS7003;48821;48.796;2.396;2023-05-21T04:13:12;36.00;33.00;22.00
62778;PMS7003;48821;48.796;2.396;2023-05-21T04:14:24;34.00;30.00;20.60
62778;PMS7003;48821;48.796;2.396;2023-05-21T04:15:36;36.40;33.20;22.60
62778;PMS7003;48821;48.796;2.396;2023-05-21T04:16:48;34.67;31.00;22.33
62778;PMS7003;48821;48.796;2.396;2023-05-21T04:18:00;38.00;34.40;22.80
62778;PMS7003;48821;48.796;2.396;2023-05-21T04:19:12;40.80;33.40;23.40
62778;PMS7003;48821;48.796;2.396;2023-05-21T04:20:24;40.20;32.80;21.80
62778;PMS7003;48821;48.796;2.396;2023-05-21T04:21:36;40.20;33.80;23.00
62778;PMS7003;48821;48.796;2.396;2023-05-21T04:22:48;42.40;35.40;23.20
62778;PMS7003;48821;48.796;2.396;2023-05-21T04:24:00;42.60;34.40;22.20
62778;PMS7003;48821;48.796;2.396;2023-05-21T04:25:12;40.60;34.20;23.20
62778;PMS7003;48821;48.796;2.396;2023-05-21T04:26:24;38.20;34.20;23.80
62778;PMS7003;48821;48.796;2.396;2023-05-21T04:27:36;42.40;35.40;23.80
62778;PMS7003;48821;48.796;2.396;2023-05-21T04:28:48;44.60;35.00;23.00
62778;PMS7003;48821;48.796;2.396;2023-05-21T04:29:59;40.50;33.00;21.50
62778;PMS7003;48821;48.796;2.396;2023-05-21T04:31:11;36.00;33.00;22.60
62778;PMS7003;48821;48.796;2.396;2023-05-21T04:32:22;31.00;27.50;20.00
62778;PMS7003;48821;48.796;2.396;2023-05-21T04:33:35;32.43;29.14;20.14
62778;PMS7003;48821;48.796;2.396;2023-05-21T04:34:47;34.40;30.00;20.20
62778;PMS7003;48821;48.796;2.396;2023-05-21T04:35:59;43.40;33.60;22.80
62778;PMS7003;48821;48.796;2.396;2023-05-21T04:37:11;35.33;32.00;21.00
62778;PMS7003;48821;48.796;2.396;2023-05-21T04:38:23;36.60;32.20;21.40
62778;PMS7003;48821;48.796;2.396;2023-05-21T04:39:35;31.00;24.00;16.00
62778;PMS7003;48821;48.796;2.396;2023-05-21T04:40:48;37.43;31.29;22.71
62778;PMS7003;48821;48.796;2.396;2023-05-21T04:41:59;33.00;31.50;22.00
62778;PMS7003;48821;48.796;2.396;2023-05-21T04:43:12;24.33;21.33;13.67
62778;PMS7003;48821;48.796;2.396;2023-05-21T04:44:24;35.00;31.40;21.20
62778;PMS7003;48821;48.796;2.396;2023-05-21T04:45:36;32.80;27.20;21.20
62778;PMS7003;48821;48.796;2.396;2023-05-21T04:46:48;33.71;31.14;21.00
62778;PMS7003;48821;48.796;2.396;2023-05-21T04:48:00;34.00;29.20;20.20
62778;PMS7003;48821;48.796;2.396;2023-05-21T04:49:12;36.00;30.60;18.80
62778;PMS7003;48821;48.796;2.396;2023-05-21T04:50:24;34.60;31.20;22.00
62778;PMS7003;48821;48.796;2.396;2023-05-21T04:51:36;30.80;27.60;18.00
62778;PMS7003;48821;48.796;2.396;2023-05-21T04:52:48;34.40;31.80;21.60
62778;PMS7003;48821;48.796;2.396;2023-05-21T04:54:00;32.40;31.20;21.40
62778;PMS7003;48821;48.796;2.396;2023-05-21T04:55:12;33.50;32.00;21.00
62778;PMS7003;48821;48.796;2.396;2023-05-21T04:56:24;38.40;32.20;21.40
62778;PMS7003;48821;48.796;2.396;2023-05-21T04:57:38;34.50;28.50;19.00
62778;PMS7003;48821;48.796;2.396;2023-05-21T04:58:52;31.63;26.75;20.13
62778;PMS7003;48821;48.796;2.396;2023-05-21T05:00:03;36.00;31.00;21.50
62778;PMS7003;48821;48.796;2.396;2023-05-21T05:01:14;34.00;29.00;18.50
62778;PMS7003;48821;48.796;2.396;2023-05-21T05:02:26;35.00;31.60;21.40
62778;PMS7003;48821;48.796;2.396;2023-05-21T05:03:38;37.00;30.40;20.80
62778;PMS7003;48821;48.796;2.396;2023-05-21T05:04:49;39.80;31.00;21.40
62778;PMS7003;48821;48.796;2.396;2023-05-21T05:06:00;32.00;25.60;19.20
62778;PMS7003;48821;48.796;2.396;2023-05-21T05:07:14;36.33;31.00;21.33
62778;PMS7003;48821;48.796;2.396;2023-05-21T05:08:26;34.80;29.20;20.20
62778;PMS7003;48821;48.796;2.396;2023-05-21T05:09:37;29.40;26.40;21.40
62778;PMS7003;48821;48.796;2.396;2023-05-21T05:10:48;35.20;32.00;22.20
62778;PMS7003;48821;48.796;2.396;2023-05-21T05:11:59;30.40;27.60;20.40
62778;PMS7003;48821;48.796;2.396;2023-05-21T05:13:09;38.00;32.00;20.50
62778;PMS7003;48821;48.796;2.396;2023-05-21T05:14:21;34.50;30.50;21.00
62778;PMS7003;48821;48.796;2.396;2023-05-21T05:15:33;31.60;31.00;21.20
62778;PMS7003;48821;48.796;2.396;2023-05-21T05:16:45;31.00;29.80;19.60
62778;PMS7003;48821;48.796;2.396;2023-05-21T05:17:57;33.50;29.50;21.00
62778;PMS7003;48821;48.796;2.396;2023-05-21T05:19:09;35.00;32.40;21.00
62778;PMS7003;48821;48.796;2.396;2023-05-21T05:20:21;39.20;33.00;20.80
62778;PMS7003;48821;48.796;2.396;2023-05-21T05:21:33;39.00;32.40;21.00
62778;PMS7003;48821;48.796;2.396;2023-05-21T05:22:45;35.80;32.60;22.00
62778;PMS7003;48821;48.796;2.396;2023-05-21T05:23:58;33.14;31.71;22.29
62778;PMS7003;48821;48.796;2.396;2023-05-21T05:25:10;36.40;30.80;21.40
62778;PMS7003;48821;48.796;2.396;2023-05-21T05:26:22;36.40;32.40;21.80
62778;PMS7003;48821;48.796;2.396;2023-05-21T05:27:33;36.00;31.80;22.20
62778;PMS7003;48821;48.796;2.396;2023-05-21T05:28:45;35.40;29.80;21.20
62778;PMS7003;48821;48.796;2.396;2023-05-21T05:29:57;33.20;32.00;20.00
62778;PMS7003;48821;48.796;2.396;2023-05-21T05:31:09;37.00;30.60;22.00
62778;PMS7003;48821;48.796;2.396;2023-05-21T05:32:21;29.20;27.80;20.40
62778;PMS7003;48821;48.796;2.396;2023-05-21T05:33:33;39.20;34.00;22.20
62778;PMS7003;48821;48.796;2.396;2023-05-21T05:34:46;31.86;30.00;21.14
62778;PMS7003;48821;48.796;2.396;2023-05-21T05:35:58;41.00;32.80;22.20
62778;PMS7003;48821;48.796;2.396;2023-05-21T05:37:10;32.60;25.60;18.40
62778;PMS7003;48821;48.796;2.396;2023-05-21T05:38:22;37.60;30.60;22.40
62778;PMS7003;48821;48.796;2.396;2023-05-21T05:39:34;35.40;31.20;20.60
62778;PMS7003;48821;48.796;2.396;2023-05-21T05:40:46;30.60;26.60;20.60
62778;PMS7003;48821;48.796;2.396;2023-05-21T05:41:58;38.00;31.60;21.20
62778;PMS7003;48821;48.796;2.396;2023-05-21T05:43:10;31.33;29.00;21.00
62778;PMS7003;48821;48.796;2.396;2023-05-21T05:44:22;35.20;31.40;21.40
62778;PMS7003;48821;48.796;2.396;2023-05-21T05:45:35;28.86;26.86;19.29
62778;PMS7003;48821;48.796;2.396;2023-05-21T05:46:47;34.80;29.20;19.20
62778;PMS7003;48821;48.796;2.396;2023-05-21T05:47:59;39.00;29.40;20.40
62778;PMS7003;48821;48.796;2.396;2023-05-21T05:49:11;32.20;28.80;19.80
62778;PMS7003;48821;48.796;2.396;2023-05-21T05:50:22;31.00;29.50;21.00
62778;PMS7003;48821;48.796;2.396;2023-05-21T05:51:34;30.20;29.00;20.20
62778;PMS7003;48821;48.796;2.396;2023-05-21T05:52:46;34.40;28.00;20.20
62778;PMS7003;48821;48.796;2.396;2023-05-21T05:53:59;36.29;31.57;21.57
62778;PMS7003;48821;48.796;2.396;2023-05-21T05:55:12;31.86;29.57;20.86
62778;PMS7003;48821;48.796;2.396;2023-05-21T05:56:24;30.80;28.60;19.60
62778;PMS7003;48821;48.796;2.396;2023-05-21T05:57:36;36.67;30.67;21.67
62778;PMS7003;48821;48.796;2.396;2023-05-21T05:58:47;37.00;31.00;21.00
62778;PMS7003;48821;48.796;2.396;2023-05-21T05:59:59;39.20;33.00;22.40
62778;PMS7003;48821;48.796;2.396;2023-05-21T06:01:11;38.00;32.00;21.00
62778;PMS7003;48821;48.796;2.396;2023-05-21T06:02:22;31.50;30.00;21.00
62778;PMS7003;48821;48.796;2.396;2023-05-21T06:03:34;29.40;27.60;20.80
62778;PMS7003;48821;48.796;2.396;2023-05-21T06:04:46;34.60;31.60;21.20
62778;PMS7003;48821;48.796;2.396;2023-05-21T06:05:57;29.20;25.40;19.80
62778;PMS7003;48821;48.796;2.396;2023-05-21T06:07:08;31.00;27.80;20.00
62778;PMS7003;48821;48.796;2.396;2023-05-21T06:08:20;40.60;35.20;23.40
62778;PMS7003;48821;48.796;2.396;2023-05-21T06:09:32;30.60;29.00;20.00
62778;PMS7003;48821;48.796;2.396;2023-05-21T06:10:44;37.00;30.60;21.20
62778;PMS7003;48821;48.796;2.396;2023-05-21T06:11:55;37.60;33.20;21.40
62778;PMS7003;48821;48.796;2.396;2023-05-21T06:13:06;34.60;31.60;22.40
62778;PMS7003;48821;48.796;2.396;2023-05-21T06:14:18;31.00;28.20;20.20
62778;PMS7003;48821;48.796;2.396;2023-05-21T06:15:30;36.20;29.60;20.60
62778;PMS7003;48821;48.796;2.396;2023-05-21T06:16:42;36.60;32.00;21.00
62778;PMS7003;48821;48.796;2.396;2023-05-21T06:17:54;30.40;30.40;20.40
62778;PMS7003;48821;48.796;2.396;2023-05-21T06:19:08;39.13;30.88;21.75
62778;PMS7003;48821;48.796;2.396;2023-05-21T06:20:20;30.80;27.40;20.80
62778;PMS7003;48821;48.796;2.396;2023-05-21T06:21:32;32.40;29.60;20.80
62778;PMS7003;48821;48.796;2.396;2023-05-21T06:22:44;39.80;31.60;20.20
62778;PMS7003;48821;48.796;2.396;2023-05-21T06:23:56;34.60;30.40;22.00
62778;PMS7003;48821;48.796;2.396;2023-05-21T06:25:09;31.38;27.38;19.50
62778;PMS7003;48821;48.796;2.396;2023-05-21T06:26:20;28.00;27.00;17.50
62778;PMS7003;48821;48.796;2.396;2023-05-21T06:27:32;39.00;32.80;22.20
62778;PMS7003;48821;48.796;2.396;2023-05-21T06:28:43;29.00;27.20;20.00
62778;PMS7003;48821;48.796;2.396;2023-05-21T06:29:53;31.00;28.50;20.00
62778;PMS7003;48821;48.796;2.396;2023-05-21T06:31:05;28.60;25.80;20.00
62778;PMS7003;48821;48.796;2.396;2023-05-21T06:32:17;41.00;32.60;21.40
62778;PMS7003;48821;48.796;2.396;2023-05-21T06:33:29;38.60;32.40;21.60
62778;PMS7003;48821;48.796;2.396;2023-05-21T06:34:42;38.86;34.14;21.43
62778;PMS7003;48821;48.796;2.396;2023-05-21T06:35:54;34.20;31.60;21.40
62778;PMS7003;48821;48.796;2.396;2023-05-21T06:37:05;34.60;31.80;21.60
62778;PMS7003;48821;48.796;2.396;2023-05-21T06:38:17;35.20;31.20;19.60
62778;PMS7003;48821;48.796;2.396;2023-05-21T06:39:29;31.20;29.40;20.40
62778;PMS7003;48821;48.796;2.396;2023-05-21T06:40:41;36.60;32.00;22.00
62778;PMS7003;48821;48.796;2.396;2023-05-21T06:41:52;35.50;31.50;21.50
62778;PMS7003;48821;48.796;2.396;2023-05-21T06:43:04;35.00;30.40;22.20
62778;PMS7003;48821;48.796;2.396;2023-05-21T06:44:16;35.80;29.80;20.40
62778;PMS7003;48821;48.796;2.396;2023-05-21T06:45:28;29.00;24.33;20.00
62778;PMS7003;48821;48.796;2.396;2023-05-21T06:46:41;32.80;27.00;20.20